sensor_id;sensor_type;location;lat;lon;timestamp;P1;durP1;ratioP1;P2;durP2;ratioP2
47539;SDS011;33280;52.152;21.052;2022-09-09T00:04:05;8.90;;;5.40;;
47539;SDS011;33280;52.152;21.052;2022-09-09T00:07:01;12.80;;;5.50;;
47539;SDS011;33280;52.152;21.052;2022-09-09T00:09:47;11.03;;;5.70;;
47539;SDS011;33280;52.152;21.052;2022-09-09T00:33:09;11.97;;;6.80;;
47539;SDS011;33280;52.152;21.052;2022-09-09T00:38:49;16.93;;;7.63;;
47539;SDS011;33280;52.152;21.052;2022-09-09T00:44:49;13.07;;;7.47;;
47539;SDS011;33280;52.152;21.052;2022-09-09T00:50:35;11.83;;;7.17;;
47539;SDS011;33280;52.152;21.052;2022-09-09T00:56:18;17.20;;;8.00;;
47539;SDS011;33280;52.152;21.052;2022-09-09T01:01:37;16.33;;;8.13;;
47539;SDS011;33280;52.152;21.052;2022-09-09T01:04:08;15.50;;;8.50;;
47539;SDS011;33280;52.152;21.052;2022-09-09T01:06:43;15.13;;;8.40;;
47539;SDS011;33280;52.152;21.052;2022-09-09T01:15:08;19.40;;;9.40;;
47539;SDS011;33280;52.152;21.052;2022-09-09T01:17:41;15.17;;;8.90;;
47539;SDS011;33280;52.152;21.052;2022-09-09T01:20:20;14.77;;;8.87;;
47539;SDS011;33280;52.152;21.052;2022-09-09T01:28:12;18.40;;;9.03;;
47539;SDS011;33280;52.152;21.052;2022-09-09T01:30:48;16.00;;;8.40;;
47539;SDS011;33280;52.152;21.052;2022-09-09T01:33:17;14.57;;;8.70;;
47539;SDS011;33280;52.152;21.052;2022-09-09T01:35:59;18.03;;;9.40;;
47539;SDS011;33280;52.152;21.052;2022-09-09T01:38:30;16.93;;;9.47;;
47539;SDS011;33280;52.152;21.052;2022-09-09T01:40:59;15.70;;;9.40;;
47539;SDS011;33280;52.152;21.052;2022-09-09T01:43:27;16.30;;;8.83;;
47539;SDS011;33280;52.152;21.052;2022-09-09T01:45:55;15.87;;;8.70;;
47539;SDS011;33280;52.152;21.052;2022-09-09T01:48:25;16.80;;;9.07;;
47539;SDS011;33280;52.152;21.052;2022-09-09T01:50:59;16.50;;;8.93;;
47539;SDS011;33280;52.152;21.052;2022-09-09T01:53:26;18.50;;;9.47;;
47539;SDS011;33280;52.152;21.052;2022-09-09T01:56:00;17.63;;;8.93;;
47539;SDS011;33280;52.152;21.052;2022-09-09T02:04:38;15.67;;;8.93;;
47539;SDS011;33280;52.152;21.052;2022-09-09T02:07:51;17.47;;;9.07;;
47539;SDS011;33280;52.152;21.052;2022-09-09T02:10:09;13.63;;;8.77;;
47539;SDS011;33280;52.152;21.052;2022-09-09T02:12:42;17.37;;;9.27;;
47539;SDS011;33280;52.152;21.052;2022-09-09T02:15:17;17.03;;;8.93;;
47539;SDS011;33280;52.152;21.052;2022-09-09T02:17:58;20.47;;;10.73;;
47539;SDS011;33280;52.152;21.052;2022-09-09T02:20:33;18.43;;;9.30;;
47539;SDS011;33280;52.152;21.052;2022-09-09T02:23:08;18.50;;;9.67;;
47539;SDS011;33280;52.152;21.052;2022-09-09T02:25:48;17.97;;;9.57;;
47539;SDS011;33280;52.152;21.052;2022-09-09T02:28:18;18.10;;;10.20;;
47539;SDS011;33280;52.152;21.052;2022-09-09T02:30:47;19.90;;;9.93;;
47539;SDS011;33280;52.152;21.052;2022-09-09T02:33:27;29.97;;;10.33;;
47539;SDS011;33280;52.152;21.052;2022-09-09T02:35:58;14.97;;;9.20;;
47539;SDS011;33280;52.152;21.052;2022-09-09T02:38:31;19.13;;;10.30;;
47539;SDS011;33280;52.152;21.052;2022-09-09T02:41:03;16.77;;;10.03;;
47539;SDS011;33280;52.152;21.052;2022-09-09T02:43:31;18.13;;;9.67;;
47539;SDS011;33280;52.152;21.052;2022-09-09T02:46:09;24.97;;;11.30;;
47539;SDS011;33280;52.152;21.052;2022-09-09T02:48:44;19.03;;;10.30;;
47539;SDS011;33280;52.152;21.052;2022-09-09T02:51:19;20.97;;;10.97;;
47539;SDS011;33280;52.152;21.052;2022-09-09T02:53:59;22.10;;;11.27;;
47539;SDS011;33280;52.152;21.052;2022-09-09T02:56:38;21.03;;;11.03;;
47539;SDS011;33280;52.152;21.052;2022-09-09T02:59:10;21.30;;;11.33;;
47539;SDS011;33280;52.152;21.052;2022-09-09T03:01:37;20.83;;;10.63;;
47539;SDS011;33280;52.152;21.052;2022-09-09T03:04:06;18.17;;;10.27;;
47539;SDS011;33280;52.152;21.052;2022-09-09T03:06:47;19.93;;;11.27;;
47539;SDS011;33280;52.152;21.052;2022-09-09T03:09:17;19.40;;;10.67;;
47539;SDS011;33280;52.152;21.052;2022-09-09T03:11:45;21.00;;;11.10;;
47539;SDS011;33280;52.152;21.052;2022-09-09T03:14:12;18.87;;;10.67;;
47539;SDS011;33280;52.152;21.052;2022-09-09T03:16:39;19.67;;;10.67;;
47539;SDS011;33280;52.152;21.052;2022-09-09T03:19:06;18.37;;;10.13;;
47539;SDS011;33280;52.152;21.052;2022-09-09T03:21:33;17.90;;;10.13;;
47539;SDS011;33280;52.152;21.052;2022-09-09T03:24:06;17.07;;;10.30;;
47539;SDS011;33280;52.152;21.052;2022-09-09T03:26:42;16.27;;;9.63;;
47539;SDS011;33280;52.152;21.052;2022-09-09T03:29:11;15.63;;;10.17;;
47539;SDS011;33280;52.152;21.052;2022-09-09T03:31:39;17.13;;;9.50;;
47539;SDS011;33280;52.152;21.052;2022-09-09T03:34:06;20.50;;;10.57;;
47539;SDS011;33280;52.152;21.052;2022-09-09T03:36:33;17.20;;;10.40;;
47539;SDS011;33280;52.152;21.052;2022-09-09T03:39:15;17.47;;;10.30;;
47539;SDS011;33280;52.152;21.052;2022-09-09T03:41:42;16.93;;;10.20;;
47539;SDS011;33280;52.152;21.052;2022-09-09T03:44:12;16.90;;;9.63;;
47539;SDS011;33280;52.152;21.052;2022-09-09T03:46:39;17.13;;;10.33;;
47539;SDS011;33280;52.152;21.052;2022-09-09T03:49:06;18.07;;;10.13;;
47539;SDS011;33280;52.152;21.052;2022-09-09T03:51:36;20.40;;;10.67;;
47539;SDS011;33280;52.152;21.052;2022-09-09T03:54:04;22.10;;;10.73;;
47539;SDS011;33280;52.152;21.052;2022-09-09T03:56:34;17.50;;;10.40;;
47539;SDS011;33280;52.152;21.052;2022-09-09T03:59:02;15.03;;;10.33;;
47539;SDS011;33280;52.152;21.052;2022-09-09T04:01:30;16.43;;;9.87;;
47539;SDS011;33280;52.152;21.052;2022-09-09T04:03:57;15.67;;;9.97;;
47539;SDS011;33280;52.152;21.052;2022-09-09T04:06:25;15.20;;;9.90;;
47539;SDS011;33280;52.152;21.052;2022-09-09T04:08:52;15.23;;;9.40;;
47539;SDS011;33280;52.152;21.052;2022-09-09T04:11:19;13.60;;;9.30;;
47539;SDS011;33280;52.152;21.052;2022-09-09T04:13:47;20.53;;;9.50;;
47539;SDS011;33280;52.152;21.052;2022-09-09T04:16:14;15.23;;;9.80;;
47539;SDS011;33280;52.152;21.052;2022-09-09T04:18:42;15.00;;;9.50;;
47539;SDS011;33280;52.152;21.052;2022-09-09T04:21:10;14.63;;;8.87;;
47539;SDS011;33280;52.152;21.052;2022-09-09T04:23:40;15.63;;;9.00;;
47539;SDS011;33280;52.152;21.052;2022-09-09T04:26:07;12.63;;;8.57;;
47539;SDS011;33280;52.152;21.052;2022-09-09T04:28:39;13.37;;;8.50;;
47539;SDS011;33280;52.152;21.052;2022-09-09T04:31:10;14.13;;;8.10;;
47539;SDS011;33280;52.152;21.052;2022-09-09T04:33:58;13.07;;;8.50;;
47539;SDS011;33280;52.152;21.052;2022-09-09T04:36:31;13.77;;;8.73;;
47539;SDS011;33280;52.152;21.052;2022-09-09T04:39:22;13.47;;;8.70;;
47539;SDS011;33280;52.152;21.052;2022-09-09T04:41:49;14.27;;;8.90;;
47539;SDS011;33280;52.152;21.052;2022-09-09T04:44:16;11.50;;;7.87;;
47539;SDS011;33280;52.152;21.052;2022-09-09T04:46:42;12.33;;;8.67;;
47539;SDS011;33280;52.152;21.052;2022-09-09T04:49:23;13.43;;;8.17;;
47539;SDS011;33280;52.152;21.052;2022-09-09T04:51:50;13.63;;;8.27;;
47539;SDS011;33280;52.152;21.052;2022-09-09T04:54:17;13.67;;;8.80;;
47539;SDS011;33280;52.152;21.052;2022-09-09T04:56:44;11.07;;;8.20;;
47539;SDS011;33280;52.152;21.052;2022-09-09T04:59:10;12.47;;;8.57;;
47539;SDS011;33280;52.152;21.052;2022-09-09T05:01:51;12.53;;;8.00;;
47539;SDS011;33280;52.152;21.052;2022-09-09T05:04:21;11.90;;;7.77;;
47539;SDS011;33280;52.152;21.052;2022-09-09T05:15:51;10.63;;;7.10;;
47539;SDS011;33280;52.152;21.052;2022-09-09T05:18:21;12.37;;;7.73;;
47539;SDS011;33280;52.152;21.052;2022-09-09T05:20:49;13.23;;;7.47;;
47539;SDS011;33280;52.152;21.052;2022-09-09T05:23:17;11.07;;;7.77;;
47539;SDS011;33280;52.152;21.052;2022-09-09T05:25:54;12.87;;;7.70;;
47539;SDS011;33280;52.152;21.052;2022-09-09T05:28:43;15.97;;;8.20;;
47539;SDS011;33280;52.152;21.052;2022-09-09T05:31:11;11.90;;;7.27;;
47539;SDS011;33280;52.152;21.052;2022-09-09T05:33:48;9.57;;;6.80;;
47539;SDS011;33280;52.152;21.052;2022-09-09T05:36:16;10.93;;;7.23;;
47539;SDS011;33280;52.152;21.052;2022-09-09T05:38:57;11.40;;;7.40;;
47539;SDS011;33280;52.152;21.052;2022-09-09T05:41:27;11.40;;;7.17;;
47539;SDS011;33280;52.152;21.052;2022-09-09T05:43:55;10.70;;;7.00;;
47539;SDS011;33280;52.152;21.052;2022-09-09T05:46:25;10.97;;;7.23;;
47539;SDS011;33280;52.152;21.052;2022-09-09T05:48:53;10.70;;;7.10;;
47539;SDS011;33280;52.152;21.052;2022-09-09T05:51:21;11.40;;;7.80;;
47539;SDS011;33280;52.152;21.052;2022-09-09T05:53:59;14.93;;;7.83;;
47539;SDS011;33280;52.152;21.052;2022-09-09T05:56:27;10.97;;;7.30;;
47539;SDS011;33280;52.152;21.052;2022-09-09T05:58:55;9.93;;;7.37;;
47539;SDS011;33280;52.152;21.052;2022-09-09T06:01:23;13.03;;;8.57;;
47539;SDS011;33280;52.152;21.052;2022-09-09T06:03:50;11.23;;;8.40;;
47539;SDS011;33280;52.152;21.052;2022-09-09T06:06:19;13.03;;;8.40;;
47539;SDS011;33280;52.152;21.052;2022-09-09T06:08:47;14.20;;;8.57;;
47539;SDS011;33280;52.152;21.052;2022-09-09T06:11:18;13.23;;;8.37;;
47539;SDS011;33280;52.152;21.052;2022-09-09T06:13:48;11.40;;;8.27;;
47539;SDS011;33280;52.152;21.052;2022-09-09T06:16:18;13.13;;;8.60;;
47539;SDS011;33280;52.152;21.052;2022-09-09T06:18:46;13.00;;;8.47;;
47539;SDS011;33280;52.152;21.052;2022-09-09T06:21:16;12.30;;;9.23;;
47539;SDS011;33280;52.152;21.052;2022-09-09T06:23:44;13.43;;;9.17;;
47539;SDS011;33280;52.152;21.052;2022-09-09T06:28:46;13.93;;;9.60;;
47539;SDS011;33280;52.152;21.052;2022-09-09T06:31:14;13.43;;;9.43;;
47539;SDS011;33280;52.152;21.052;2022-09-09T06:33:55;14.70;;;10.07;;
47539;SDS011;33280;52.152;21.052;2022-09-09T06:38:52;17.73;;;10.23;;
47539;SDS011;33280;52.152;21.052;2022-09-09T06:41:20;16.13;;;10.20;;
47539;SDS011;33280;52.152;21.052;2022-09-09T06:43:48;13.30;;;9.97;;
47539;SDS011;33280;52.152;21.052;2022-09-09T06:46:25;13.67;;;10.07;;
47539;SDS011;33280;52.152;21.052;2022-09-09T06:48:55;17.33;;;10.40;;
47539;SDS011;33280;52.152;21.052;2022-09-09T06:51:26;16.03;;;11.00;;
47539;SDS011;33280;52.152;21.052;2022-09-09T06:53:56;18.73;;;11.07;;
47539;SDS011;33280;52.152;21.052;2022-09-09T06:56:26;16.17;;;11.13;;
47539;SDS011;33280;52.152;21.052;2022-09-09T06:58:59;14.70;;;11.03;;
47539;SDS011;33280;52.152;21.052;2022-09-09T07:01:31;16.07;;;11.27;;
47539;SDS011;33280;52.152;21.052;2022-09-09T07:04:03;15.50;;;10.90;;
47539;SDS011;33280;52.152;21.052;2022-09-09T07:06:37;22.07;;;12.03;;
47539;SDS011;33280;52.152;21.052;2022-09-09T07:09:13;18.70;;;12.10;;
47539;SDS011;33280;52.152;21.052;2022-09-09T07:11:42;17.17;;;11.33;;
47539;SDS011;33280;52.152;21.052;2022-09-09T07:14:11;16.63;;;11.20;;
47539;SDS011;33280;52.152;21.052;2022-09-09T07:16:40;17.10;;;11.33;;
47539;SDS011;33280;52.152;21.052;2022-09-09T07:19:08;17.53;;;11.40;;
47539;SDS011;33280;52.152;21.052;2022-09-09T07:21:37;19.80;;;12.47;;
47539;SDS011;33280;52.152;21.052;2022-09-09T07:27:00;17.10;;;12.37;;
47539;SDS011;33280;52.152;21.052;2022-09-09T07:29:36;16.83;;;11.97;;
47539;SDS011;33280;52.152;21.052;2022-09-09T07:36:34;18.00;;;11.70;;
47539;SDS011;33280;52.152;21.052;2022-09-09T07:39:06;20.63;;;12.47;;
47539;SDS011;33280;52.152;21.052;2022-09-09T07:41:40;18.87;;;12.53;;
47539;SDS011;33280;52.152;21.052;2022-09-09T07:51:28;18.70;;;12.53;;
47539;SDS011;33280;52.152;21.052;2022-09-09T07:54:03;18.13;;;12.87;;
47539;SDS011;33280;52.152;21.052;2022-09-09T07:56:38;17.10;;;11.87;;
47539;SDS011;33280;52.152;21.052;2022-09-09T07:59:06;20.87;;;12.40;;
47539;SDS011;33280;52.152;21.052;2022-09-09T08:01:36;20.60;;;12.63;;
47539;SDS011;33280;52.152;21.052;2022-09-09T08:04:09;20.03;;;12.80;;
47539;SDS011;33280;52.152;21.052;2022-09-09T08:12:50;19.87;;;13.27;;
47539;SDS011;33280;52.152;21.052;2022-09-09T08:15:39;20.00;;;12.93;;
47539;SDS011;33280;52.152;21.052;2022-09-09T08:18:20;17.97;;;12.33;;
47539;SDS011;33280;52.152;21.052;2022-09-09T08:21:25;18.17;;;11.43;;
47539;SDS011;33280;52.152;21.052;2022-09-09T08:26:38;18.83;;;12.40;;
47539;SDS011;33280;52.152;21.052;2022-09-09T08:29:11;21.23;;;12.93;;
47539;SDS011;33280;52.152;21.052;2022-09-09T08:31:41;18.73;;;12.30;;
47539;SDS011;33280;52.152;21.052;2022-09-09T08:34:10;21.97;;;12.60;;
47539;SDS011;33280;52.152;21.052;2022-09-09T08:36:40;22.93;;;13.50;;
47539;SDS011;33280;52.152;21.052;2022-09-09T08:39:12;22.13;;;13.10;;
47539;SDS011;33280;52.152;21.052;2022-09-09T08:52:29;23.43;;;13.97;;
47539;SDS011;33280;52.152;21.052;2022-09-09T08:54:59;22.83;;;14.63;;
47539;SDS011;33280;52.152;21.052;2022-09-09T08:58:12;23.60;;;14.87;;
47539;SDS011;33280;52.152;21.052;2022-09-09T09:10:48;26.10;;;15.70;;
47539;SDS011;33280;52.152;21.052;2022-09-09T09:19:46;24.60;;;15.63;;
47539;SDS011;33280;52.152;21.052;2022-09-09T09:27:25;26.00;;;15.63;;
47539;SDS011;33280;52.152;21.052;2022-09-09T09:29:54;26.50;;;14.93;;
47539;SDS011;33280;52.152;21.052;2022-09-09T09:32:52;27.47;;;16.17;;
47539;SDS011;33280;52.152;21.052;2022-09-09T09:35:22;34.67;;;16.93;;
47539;SDS011;33280;52.152;21.052;2022-09-09T09:37:50;26.17;;;16.27;;
47539;SDS011;33280;52.152;21.052;2022-09-09T09:40:37;26.33;;;15.70;;
47539;SDS011;33280;52.152;21.052;2022-09-09T09:43:36;28.90;;;16.13;;
47539;SDS011;33280;52.152;21.052;2022-09-09T09:46:16;30.63;;;17.20;;
47539;SDS011;33280;52.152;21.052;2022-09-09T09:48:55;25.23;;;15.63;;
47539;SDS011;33280;52.152;21.052;2022-09-09T09:51:23;29.97;;;16.57;;
47539;SDS011;33280;52.152;21.052;2022-09-09T09:53:51;31.57;;;16.90;;
47539;SDS011;33280;52.152;21.052;2022-09-09T09:56:27;28.50;;;17.27;;
47539;SDS011;33280;52.152;21.052;2022-09-09T09:59:00;29.93;;;17.53;;
47539;SDS011;33280;52.152;21.052;2022-09-09T10:01:43;31.43;;;17.17;;
47539;SDS011;33280;52.152;21.052;2022-09-09T10:04:42;31.17;;;18.17;;
47539;SDS011;33280;52.152;21.052;2022-09-09T10:09:53;33.13;;;18.33;;
47539;SDS011;33280;52.152;21.052;2022-09-09T10:21:11;31.30;;;18.90;;
47539;SDS011;33280;52.152;21.052;2022-09-09T10:27:09;34.87;;;18.60;;
47539;SDS011;33280;52.152;21.052;2022-09-09T10:32:35;32.03;;;19.07;;
47539;SDS011;33280;52.152;21.052;2022-09-09T11:00:59;39.50;;;21.60;;
47539;SDS011;33280;52.152;21.052;2022-09-09T11:03:34;42.10;;;21.80;;
47539;SDS011;33280;52.152;21.052;2022-09-09T11:06:16;41.80;;;22.17;;
47539;SDS011;33280;52.152;21.052;2022-09-09T11:09:23;41.50;;;21.93;;
47539;SDS011;33280;52.152;21.052;2022-09-09T11:12:15;40.53;;;21.90;;
47539;SDS011;33280;52.152;21.052;2022-09-09T11:15:03;37.97;;;20.80;;
47539;SDS011;33280;52.152;21.052;2022-09-09T11:17:59;40.33;;;22.40;;
47539;SDS011;33280;52.152;21.052;2022-09-09T11:21:01;37.73;;;21.10;;
47539;SDS011;33280;52.152;21.052;2022-09-09T11:26:31;42.77;;;23.77;;
47539;SDS011;33280;52.152;21.052;2022-09-09T11:41:41;45.00;;;23.33;;
47539;SDS011;33280;52.152;21.052;2022-09-09T11:44:12;47.93;;;23.43;;
47539;SDS011;33280;52.152;21.052;2022-09-09T11:46:54;46.87;;;23.90;;
47539;SDS011;33280;52.152;21.052;2022-09-09T11:49:40;50.57;;;25.53;;
47539;SDS011;33280;52.152;21.052;2022-09-09T11:52:22;50.47;;;24.17;;
47539;SDS011;33280;52.152;21.052;2022-09-09T11:55:09;51.23;;;25.20;;
47539;SDS011;33280;52.152;21.052;2022-09-09T11:57:38;48.73;;;24.60;;
47539;SDS011;33280;52.152;21.052;2022-09-09T12:00:05;46.30;;;23.97;;
47539;SDS011;33280;52.152;21.052;2022-09-09T12:02:33;46.83;;;23.83;;
47539;SDS011;33280;52.152;21.052;2022-09-09T12:05:07;60.87;;;24.70;;
47539;SDS011;33280;52.152;21.052;2022-09-09T12:07:40;46.97;;;23.43;;
47539;SDS011;33280;52.152;21.052;2022-09-09T12:10:29;47.20;;;24.63;;
47539;SDS011;33280;52.152;21.052;2022-09-09T12:58:01;50.43;;;25.00;;
47539;SDS011;33280;52.152;21.052;2022-09-09T13:00:33;52.17;;;24.10;;
47539;SDS011;33280;52.152;21.052;2022-09-09T13:03:02;46.20;;;24.17;;
47539;SDS011;33280;52.152;21.052;2022-09-09T13:05:43;46.60;;;23.37;;
47539;SDS011;33280;52.152;21.052;2022-09-09T13:08:23;50.93;;;25.27;;
47539;SDS011;33280;52.152;21.052;2022-09-09T13:49:40;48.33;;;22.37;;
47539;SDS011;33280;52.152;21.052;2022-09-09T13:52:30;47.43;;;21.90;;
47539;SDS011;33280;52.152;21.052;2022-09-09T14:02:15;46.27;;;21.90;;
47539;SDS011;33280;52.152;21.052;2022-09-09T14:05:29;54.60;;;23.10;;
47539;SDS011;33280;52.152;21.052;2022-09-09T14:44:00;53.43;;;23.50;;
47539;SDS011;33280;52.152;21.052;2022-09-09T14:58:13;47.60;;;21.70;;
47539;SDS011;33280;52.152;21.052;2022-09-09T15:17:40;46.73;;;21.27;;
47539;SDS011;33280;52.152;21.052;2022-09-09T15:23:41;41.57;;;21.60;;
47539;SDS011;33280;52.152;21.052;2022-09-09T15:26:09;50.40;;;21.73;;
47539;SDS011;33280;52.152;21.052;2022-09-09T15:28:40;46.30;;;21.60;;
47539;SDS011;33280;52.152;21.052;2022-09-09T15:31:19;43.80;;;20.80;;
47539;SDS011;33280;52.152;21.052;2022-09-09T15:34:04;39.30;;;20.30;;
47539;SDS011;33280;52.152;21.052;2022-09-09T15:36:39;37.33;;;20.57;;
47539;SDS011;33280;52.152;21.052;2022-09-09T15:39:08;42.87;;;21.00;;
47539;SDS011;33280;52.152;21.052;2022-09-09T15:41:54;44.50;;;22.07;;
47539;SDS011;33280;52.152;21.052;2022-09-09T15:44:23;46.43;;;22.43;;
47539;SDS011;33280;52.152;21.052;2022-09-09T15:47:04;40.93;;;20.97;;
47539;SDS011;33280;52.152;21.052;2022-09-09T15:49:31;45.37;;;22.83;;
47539;SDS011;33280;52.152;21.052;2022-09-09T15:51:59;43.07;;;22.70;;
47539;SDS011;33280;52.152;21.052;2022-09-09T15:58:18;46.50;;;22.60;;
47539;SDS011;33280;52.152;21.052;2022-09-09T16:00:48;43.13;;;21.67;;
47539;SDS011;33280;52.152;21.052;2022-09-09T16:12:59;42.83;;;21.77;;
47539;SDS011;33280;52.152;21.052;2022-09-09T16:15:44;40.93;;;22.33;;
47539;SDS011;33280;52.152;21.052;2022-09-09T16:21:33;42.17;;;22.33;;
47539;SDS011;33280;52.152;21.052;2022-09-09T16:24:13;41.57;;;22.17;;
47539;SDS011;33280;52.152;21.052;2022-09-09T16:29:27;46.10;;;21.83;;
47539;SDS011;33280;52.152;21.052;2022-09-09T16:32:00;39.03;;;21.53;;
47539;SDS011;33280;52.152;21.052;2022-09-09T16:34:29;38.87;;;22.10;;
47539;SDS011;33280;52.152;21.052;2022-09-09T16:39:38;38.93;;;22.10;;
47539;SDS011;33280;52.152;21.052;2022-09-09T16:42:05;46.57;;;23.50;;
47539;SDS011;33280;52.152;21.052;2022-09-09T16:44:32;40.80;;;21.70;;
47539;SDS011;33280;52.152;21.052;2022-09-09T16:46:59;35.23;;;20.90;;
47539;SDS011;33280;52.152;21.052;2022-09-09T16:49:26;40.00;;;21.80;;
47539;SDS011;33280;52.152;21.052;2022-09-09T16:51:56;40.77;;;21.90;;
47539;SDS011;33280;52.152;21.052;2022-09-09T16:54:24;40.67;;;21.13;;
47539;SDS011;33280;52.152;21.052;2022-09-09T16:56:59;40.67;;;21.17;;
47539;SDS011;33280;52.152;21.052;2022-09-09T16:59:26;45.43;;;22.03;;
47539;SDS011;33280;52.152;21.052;2022-09-09T17:02:07;38.43;;;20.50;;
47539;SDS011;33280;52.152;21.052;2022-09-09T17:04:34;41.57;;;20.43;;
47539;SDS011;33280;52.152;21.052;2022-09-09T17:07:01;37.53;;;20.10;;
47539;SDS011;33280;52.152;21.052;2022-09-09T17:09:31;37.00;;;20.53;;
47539;SDS011;33280;52.152;21.052;2022-09-09T17:12:07;37.17;;;20.13;;
47539;SDS011;33280;52.152;21.052;2022-09-09T17:14:49;40.70;;;21.10;;
47539;SDS011;33280;52.152;21.052;2022-09-09T17:17:16;36.00;;;21.03;;
47539;SDS011;33280;52.152;21.052;2022-09-09T17:19:59;43.47;;;20.83;;
47539;SDS011;33280;52.152;21.052;2022-09-09T17:23:42;45.10;;;21.03;;
47539;SDS011;33280;52.152;21.052;2022-09-09T17:32:04;45.13;;;21.70;;
47539;SDS011;33280;52.152;21.052;2022-09-09T17:34:34;42.83;;;21.87;;
47539;SDS011;33280;52.152;21.052;2022-09-09T17:37:02;44.07;;;21.43;;
47539;SDS011;33280;52.152;21.052;2022-09-09T17:40:06;45.40;;;21.03;;
47539;SDS011;33280;52.152;21.052;2022-09-09T17:46:31;44.93;;;22.97;;
47539;SDS011;33280;52.152;21.052;2022-09-09T17:52:03;47.17;;;22.83;;
47539;SDS011;33280;52.152;21.052;2022-09-09T17:54:33;45.53;;;23.33;;
47539;SDS011;33280;52.152;21.052;2022-09-09T18:03:49;43.00;;;21.63;;
47539;SDS011;33280;52.152;21.052;2022-09-09T18:06:36;48.33;;;22.47;;
47539;SDS011;33280;52.152;21.052;2022-09-09T18:11:56;41.63;;;20.67;;
47539;SDS011;33280;52.152;21.052;2022-09-09T18:18:24;39.53;;;20.43;;
47539;SDS011;33280;52.152;21.052;2022-09-09T18:21:09;43.47;;;21.20;;
47539;SDS011;33280;52.152;21.052;2022-09-09T18:24:19;41.93;;;21.80;;
47539;SDS011;33280;52.152;21.052;2022-09-09T18:26:50;49.03;;;23.07;;
47539;SDS011;33280;52.152;21.052;2022-09-09T18:29:26;41.13;;;22.00;;
47539;SDS011;33280;52.152;21.052;2022-09-09T18:35:00;46.40;;;21.80;;
47539;SDS011;33280;52.152;21.052;2022-09-09T18:37:50;42.90;;;20.87;;
47539;SDS011;33280;52.152;21.052;2022-09-09T18:40:20;41.37;;;21.33;;
47539;SDS011;33280;52.152;21.052;2022-09-09T18:42:47;38.13;;;19.57;;
47539;SDS011;33280;52.152;21.052;2022-09-09T18:45:17;40.63;;;20.40;;
47539;SDS011;33280;52.152;21.052;2022-09-09T18:47:46;36.63;;;19.60;;
47539;SDS011;33280;52.152;21.052;2022-09-09T18:54:20;37.60;;;19.17;;
47539;SDS011;33280;52.152;21.052;2022-09-09T18:56:51;35.83;;;19.67;;
47539;SDS011;33280;52.152;21.052;2022-09-09T18:59:48;36.20;;;18.53;;
47539;SDS011;33280;52.152;21.052;2022-09-09T19:02:15;33.37;;;18.97;;
47539;SDS011;33280;52.152;21.052;2022-09-09T19:04:42;36.17;;;18.13;;
47539;SDS011;33280;52.152;21.052;2022-09-09T19:07:12;33.37;;;17.43;;
47539;SDS011;33280;52.152;21.052;2022-09-09T19:09:45;37.00;;;18.73;;
47539;SDS011;33280;52.152;21.052;2022-09-09T19:12:30;31.77;;;17.43;;
47539;SDS011;33280;52.152;21.052;2022-09-09T19:15:19;31.77;;;17.83;;
47539;SDS011;33280;52.152;21.052;2022-09-09T19:17:46;36.60;;;17.77;;
47539;SDS011;33280;52.152;21.052;2022-09-09T19:20:25;30.63;;;16.50;;
47539;SDS011;33280;52.152;21.052;2022-09-09T19:23:08;29.90;;;16.73;;
47539;SDS011;33280;52.152;21.052;2022-09-09T19:25:35;28.00;;;16.23;;
47539;SDS011;33280;52.152;21.052;2022-09-09T19:31:07;30.57;;;17.47;;
47539;SDS011;33280;52.152;21.052;2022-09-09T19:33:51;30.90;;;16.87;;
47539;SDS011;33280;52.152;21.052;2022-09-09T19:40:26;31.77;;;17.00;;
47539;SDS011;33280;52.152;21.052;2022-09-09T20:06:33;33.57;;;17.83;;
47539;SDS011;33280;52.152;21.052;2022-09-09T20:09:05;31.87;;;17.63;;
47539;SDS011;33280;52.152;21.052;2022-09-09T20:11:35;30.20;;;17.60;;
47539;SDS011;33280;52.152;21.052;2022-09-09T20:14:06;28.93;;;17.73;;
47539;SDS011;33280;52.152;21.052;2022-09-09T20:16:46;29.13;;;16.27;;
47539;SDS011;33280;52.152;21.052;2022-09-09T20:22:36;27.17;;;14.87;;
47539;SDS011;33280;52.152;21.052;2022-09-09T20:25:38;23.87;;;15.03;;
47539;SDS011;33280;52.152;21.052;2022-09-09T20:28:17;24.67;;;15.17;;
47539;SDS011;33280;52.152;21.052;2022-09-09T20:33:32;27.40;;;15.30;;
47539;SDS011;33280;52.152;21.052;2022-09-09T20:36:11;27.37;;;15.07;;
47539;SDS011;33280;52.152;21.052;2022-09-09T20:38:41;26.83;;;15.30;;
47539;SDS011;33280;52.152;21.052;2022-09-09T20:41:14;24.40;;;14.93;;
47539;SDS011;33280;52.152;21.052;2022-09-09T20:52:43;22.30;;;13.53;;
47539;SDS011;33280;52.152;21.052;2022-09-09T21:02:54;24.80;;;12.73;;
47539;SDS011;33280;52.152;21.052;2022-09-09T21:06:05;20.67;;;12.90;;
47539;SDS011;33280;52.152;21.052;2022-09-09T21:08:33;21.97;;;13.57;;
47539;SDS011;33280;52.152;21.052;2022-09-09T21:11:41;22.57;;;13.00;;
47539;SDS011;33280;52.152;21.052;2022-09-09T21:14:08;22.80;;;13.23;;
47539;SDS011;33280;52.152;21.052;2022-09-09T21:16:35;20.27;;;12.50;;
47539;SDS011;33280;52.152;21.052;2022-09-09T21:19:05;21.13;;;13.40;;
47539;SDS011;33280;52.152;21.052;2022-09-09T21:21:32;23.77;;;12.73;;
47539;SDS011;33280;52.152;21.052;2022-09-09T21:23:58;20.17;;;12.70;;
47539;SDS011;33280;52.152;21.052;2022-09-09T21:26:26;23.53;;;13.33;;
47539;SDS011;33280;52.152;21.052;2022-09-09T21:28:53;19.47;;;12.80;;
47539;SDS011;33280;52.152;21.052;2022-09-09T21:46:51;21.53;;;12.60;;
47539;SDS011;33280;52.152;21.052;2022-09-09T21:49:59;23.03;;;12.50;;
47539;SDS011;33280;52.152;21.052;2022-09-09T21:55:20;23.27;;;13.40;;
47539;SDS011;33280;52.152;21.052;2022-09-09T21:57:59;20.53;;;12.63;;
47539;SDS011;33280;52.152;21.052;2022-09-09T22:00:26;23.83;;;12.87;;
47539;SDS011;33280;52.152;21.052;2022-09-09T22:02:53;18.83;;;12.03;;
47539;SDS011;33280;52.152;21.052;2022-09-09T22:05:20;21.40;;;12.57;;
47539;SDS011;33280;52.152;21.052;2022-09-09T22:07:47;22.13;;;12.73;;
47539;SDS011;33280;52.152;21.052;2022-09-09T22:10:14;21.93;;;12.63;;
47539;SDS011;33280;52.152;21.052;2022-09-09T22:12:41;20.43;;;12.77;;
47539;SDS011;33280;52.152;21.052;2022-09-09T22:15:11;20.93;;;13.70;;
47539;SDS011;33280;52.152;21.052;2022-09-09T22:29:34;20.87;;;12.43;;
47539;SDS011;33280;52.152;21.052;2022-09-09T22:32:01;21.37;;;12.47;;
47539;SDS011;33280;52.152;21.052;2022-09-09T22:34:28;20.13;;;12.90;;
47539;SDS011;33280;52.152;21.052;2022-09-09T22:37:05;24.97;;;13.37;;
47539;SDS011;33280;52.152;21.052;2022-09-09T22:39:46;21.33;;;12.53;;
47539;SDS011;33280;52.152;21.052;2022-09-09T22:42:17;20.90;;;13.13;;
47539;SDS011;33280;52.152;21.052;2022-09-09T22:44:44;25.80;;;13.30;;
47539;SDS011;33280;52.152;21.052;2022-09-09T22:47:14;24.83;;;12.93;;
47539;SDS011;33280;52.152;21.052;2022-09-09T22:49:42;20.70;;;13.20;;
47539;SDS011;33280;52.152;21.052;2022-09-09T22:57:41;27.90;;;13.37;;
47539;SDS011;33280;52.152;21.052;2022-09-09T23:00:23;21.97;;;13.20;;
47539;SDS011;33280;52.152;21.052;2022-09-09T23:02:56;18.63;;;12.20;;